createdAt,value
2019-06-07T05:11:52.224Z,5083.00
2019-06-07T05:12:52.935Z,4780.00
2019-06-07T05:13:53.487Z,4949.00
2019-06-07T05:14:52.802Z,5344.00
2019-06-07T05:15:53.352Z,5040.00
2019-06-07T05:16:53.764Z,4866.00
2019-06-07T05:17:54.178Z,5429.00
2019-06-07T05:18:54.488Z,5851.00
2019-06-07T05:19:55.085Z,5428.00
2019-06-07T05:20:55.423Z,5623.00
2019-06-07T05:22:04.216Z,5910.00
2019-06-07T05:22:55.915Z,6632.00
2019-06-07T05:24:06.449Z,6298.00
2019-06-07T05:24:56.808Z,6962.00
2019-06-07T05:25:57.107Z,6716.00
2019-06-07T05:26:57.332Z,6431.00
2019-06-07T05:27:57.200Z,6670.00
2019-06-07T05:28:57.658Z,6674.00
2019-06-07T05:30:09.406Z,7092.00
2019-06-07T05:31:04.676Z,5705.00
2019-06-07T05:31:58.758Z,6767.00
2019-06-07T05:32:59.083Z,6942.00
2019-06-07T05:34:00.039Z,6074.00
2019-06-07T05:35:00.174Z,5547.00
2019-06-07T05:36:00.062Z,6281.00
2019-06-07T05:37:11.390Z,6918.00
2019-06-07T05:38:00.891Z,6485.00
2019-06-07T05:39:01.340Z,7125.00
2019-06-07T05:40:01.102Z,7203.00
2019-06-07T05:41:01.417Z,6657.00
2019-06-07T05:42:02.241Z,6916.00
2019-06-07T05:43:02.864Z,8387.00
2019-06-07T05:44:12.839Z,8573.00
2019-06-07T05:45:03.492Z,8528.00
2019-06-07T05:46:03.777Z,8361.00
2019-06-07T05:47:03.606Z,9024.00
2019-06-07T05:48:04.334Z,9641.00
2019-06-07T05:49:04.233Z,7458.00
2019-06-07T05:50:04.707Z,8237.00
2019-06-07T05:51:04.402Z,7817.00
2019-06-07T05:52:04.179Z,8889.00
2019-06-07T05:53:04.901Z,7896.00
2019-06-07T05:54:05.142Z,7419.00
2019-06-07T05:55:05.036Z,9059.00
2019-06-07T05:56:05.979Z,7667.00
2019-06-07T05:57:05.773Z,7999.00
2019-06-07T05:58:06.097Z,8846.00
2019-06-07T05:59:06.412Z,8103.00
2019-06-07T06:00:07.293Z,7791.00
2019-06-07T06:01:41.398Z,8098.00
2019-06-07T06:02:21.829Z,8117.00
2019-06-07T06:03:08.224Z,9210.00
2019-06-07T06:04:08.204Z,7873.00
2019-06-07T06:05:08.845Z,8759.00
2019-06-07T06:06:08.849Z,8470.00
2019-06-07T06:07:09.222Z,9141.00
2019-06-07T06:08:09.690Z,9445.00
2019-06-07T06:09:13.737Z,11921.00
2019-06-07T06:10:10.311Z,8235.00
2019-06-07T06:11:10.310Z,8042.00
2019-06-07T06:12:10.079Z,8751.00
2019-06-07T06:13:10.876Z,8255.00
2019-06-07T06:14:10.753Z,7868.00
2019-06-07T06:15:11.463Z,9792.00
2019-06-07T06:16:11.582Z,9055.00
2019-06-07T06:17:11.429Z,8486.00
2019-06-07T06:18:11.992Z,7869.00
2019-06-07T06:19:12.585Z,9130.00
2019-06-07T06:20:12.117Z,11334.00
2019-06-07T06:21:19.361Z,11947.00
2019-06-07T06:22:13.055Z,10779.00
2019-06-07T06:23:13.082Z,10719.00
2019-06-07T06:24:13.063Z,11038.00
2019-06-07T06:25:31.688Z,9719.00
2019-06-07T06:26:13.396Z,9692.00
2019-06-07T06:27:41.792Z,9260.00
2019-06-07T06:28:16.204Z,9090.00
2019-06-07T06:29:14.234Z,9713.00
2019-06-07T06:30:14.437Z,10732.00
2019-06-07T06:31:14.641Z,8588.00
2019-06-07T06:32:41.249Z,8532.00
2019-06-07T06:33:30.751Z,8348.00
2019-06-07T06:34:14.818Z,10351.00
2019-06-07T06:35:16.017Z,11766.00
2019-06-07T06:36:15.431Z,12127.00
2019-06-07T06:37:16.202Z,13814.00
2019-06-07T06:38:16.472Z,12854.00
2019-06-07T06:39:16.755Z,15241.00
2019-06-07T06:40:17.675Z,13522.00
2019-06-07T06:42:17.010Z,14780.00
2019-06-07T06:43:17.341Z,12835.00
2019-06-07T06:44:17.834Z,12305.00
2019-06-07T06:45:18.166Z,15457.00
2019-06-07T06:46:37.474Z,14119.00
2019-06-07T06:47:18.920Z,13605.00
2019-06-07T06:48:19.775Z,12517.00
2019-06-07T06:49:20.299Z,13735.00
2019-06-07T06:50:20.196Z,11709.00
2019-06-07T06:51:20.510Z,12426.00
2019-06-07T06:52:20.285Z,16028.00
2019-06-07T06:53:21.136Z,14155.00
2019-06-07T06:54:39.626Z,14268.00
2019-06-07T06:55:21.724Z,13682.00
2019-06-07T06:56:21.157Z,14946.00
2019-06-07T06:57:21.130Z,14170.00
2019-06-07T06:58:21.535Z,65536.00
2019-06-07T06:59:38.126Z,16709.00
2019-06-07T07:00:42.780Z,15139.00
2019-06-07T07:01:22.363Z,14973.00
2019-06-07T07:02:23.143Z,14138.00
2019-06-07T07:04:23.335Z,12636.00
2019-06-07T07:05:24.064Z,12924.00
2019-06-07T07:06:26.732Z,12988.00
2019-06-07T07:07:24.302Z,13470.00
2019-06-07T07:08:24.151Z,12680.00
2019-06-07T07:09:24.529Z,12659.00
2019-06-07T07:10:25.029Z,11744.00
2019-06-07T07:11:25.143Z,11744.00
2019-06-07T07:12:24.948Z,12212.00
2019-06-07T07:13:25.574Z,11823.00
2019-06-07T07:14:25.508Z,13556.00
2019-06-07T07:15:26.096Z,13362.00
2019-06-07T07:16:26.901Z,12625.00
2019-06-07T07:17:47.048Z,12696.00
2019-06-07T07:18:26.686Z,12558.00
2019-06-07T07:19:26.999Z,14129.00
2019-06-07T07:20:27.337Z,12749.00
2019-06-07T07:21:27.875Z,11855.00
2019-06-07T07:22:27.899Z,12166.00
2019-06-07T07:23:27.799Z,11776.00
2019-06-07T07:24:28.708Z,13170.00
2019-06-07T07:25:28.974Z,13157.00
2019-06-07T07:26:28.924Z,11313.00
2019-06-07T07:27:29.310Z,9336.00
2019-06-07T07:28:30.071Z,8192.00
2019-06-07T07:29:29.926Z,8691.00
2019-06-07T07:30:36.495Z,10645.00
2019-06-07T07:31:30.710Z,10524.00
2019-06-07T07:32:30.958Z,11574.00
2019-06-07T07:34:20.979Z,10350.00
2019-06-07T07:34:35.527Z,10699.00
2019-06-07T07:35:30.891Z,12207.00
2019-06-07T07:36:39.171Z,13826.00
2019-06-07T07:37:31.665Z,14443.00
2019-06-07T07:38:31.661Z,15433.00
2019-06-07T07:39:31.883Z,14378.00
2019-06-07T07:40:57.218Z,13162.00
2019-06-07T07:41:31.949Z,11088.00
2019-06-07T07:42:33.030Z,9782.00
2019-06-07T07:43:32.553Z,11948.00
2019-06-07T07:44:33.147Z,13262.00
2019-06-07T07:45:33.052Z,16925.00
2019-06-07T07:46:35.505Z,65536.00
2019-06-07T07:47:33.678Z,65536.00
2019-06-07T07:48:33.463Z,16658.00
2019-06-07T07:49:34.677Z,13491.00
2019-06-07T07:50:34.430Z,15667.00
2019-06-07T07:51:34.264Z,15707.00
2019-06-07T07:52:35.077Z,15156.00
2019-06-07T07:53:48.359Z,15413.00
2019-06-07T07:54:35.213Z,13995.00
2019-06-07T07:55:35.885Z,16489.00
2019-06-07T07:56:36.503Z,65536.00
2019-06-07T07:57:36.513Z,65536.00
2019-06-07T07:58:36.377Z,65536.00
2019-06-07T07:59:43.936Z,15924.00
2019-06-07T08:00:52.282Z,65536.00
2019-06-07T08:01:37.764Z,65536.00
2019-06-07T08:02:37.615Z,65536.00
2019-06-07T08:03:37.935Z,65536.00
2019-06-07T08:05:13.577Z,65536.00
2019-06-07T08:05:42.950Z,65536.00
2019-06-07T08:06:38.912Z,65536.00
2019-06-07T08:07:39.545Z,65536.00
2019-06-07T08:08:40.167Z,65536.00
2019-06-07T08:09:40.235Z,65536.00
2019-06-07T08:10:39.713Z,65536.00
2019-06-07T08:11:40.034Z,17270.00
2019-06-07T08:13:00.463Z,65536.00
2019-06-07T08:13:41.630Z,65536.00
2019-06-07T08:14:41.330Z,65536.00
2019-06-07T08:16:41.559Z,65536.00
2019-06-07T08:17:41.410Z,65536.00
2019-06-07T08:18:42.483Z,65536.00
2019-06-07T08:19:41.798Z,65536.00
2019-06-07T08:21:01.456Z,65536.00
2019-06-07T08:21:42.814Z,65536.00
2019-06-07T08:22:43.022Z,65536.00
2019-06-07T08:23:42.823Z,65536.00
2019-06-07T08:24:43.957Z,65536.00
2019-06-07T08:25:43.565Z,65536.00
2019-06-07T08:26:43.832Z,65536.00
2019-06-07T08:27:43.739Z,65536.00
2019-06-07T08:28:44.702Z,65536.00
2019-06-07T08:30:00.637Z,65536.00
2019-06-07T08:30:54.347Z,65536.00
2019-06-07T08:31:45.643Z,65536.00
2019-06-07T08:32:45.273Z,65536.00
2019-06-07T08:33:45.094Z,65536.00
2019-06-07T08:34:45.114Z,65536.00
2019-06-07T08:36:46.005Z,65536.00
2019-06-07T08:38:51.111Z,15895.00
2019-06-07T08:39:49.812Z,16539.00
2019-06-07T08:40:47.203Z,65536.00
2019-06-07T08:42:00.415Z,65536.00
2019-06-07T08:43:10.648Z,65536.00
2019-06-07T08:43:49.213Z,65536.00
2019-06-07T08:44:49.196Z,65536.00
2019-06-07T08:45:53.175Z,17700.00
2019-06-07T08:46:56.648Z,17457.00
2019-06-07T08:47:56.540Z,65536.00
2019-06-07T08:48:51.200Z,65536.00
2019-06-07T08:49:54.928Z,65536.00
2019-06-07T08:50:52.959Z,14645.00
2019-06-07T08:51:52.583Z,14291.00
2019-06-07T08:52:56.498Z,14405.00
2019-06-07T08:54:09.593Z,14248.00
2019-06-07T08:54:54.207Z,14885.00
2019-06-07T08:55:58.286Z,15529.00
2019-06-07T08:56:57.409Z,16831.00
2019-06-07T08:57:57.256Z,17051.00
2019-06-07T08:58:55.015Z,15283.00
2019-06-07T08:59:55.691Z,14163.00
2019-06-07T09:00:58.089Z,14635.00
2019-06-07T09:01:58.461Z,14576.00
2019-06-07T09:02:55.659Z,14620.00
2019-06-07T09:04:00.154Z,14247.00
2019-06-07T09:04:57.003Z,14156.00
2019-06-07T09:05:57.217Z,14490.00
2019-06-07T09:07:06.692Z,13642.00
2019-06-07T09:08:21.065Z,12796.00
2019-06-07T09:08:58.273Z,12599.00
2019-06-07T09:10:03.444Z,11939.00
2019-06-07T09:10:58.929Z,11865.00
2019-06-07T09:11:59.469Z,11589.00
2019-06-07T09:13:00.352Z,12118.00
2019-06-07T09:14:00.054Z,12786.00
2019-06-07T09:15:12.123Z,12609.00
2019-06-07T09:16:03.453Z,12877.00
2019-06-07T09:17:01.286Z,14003.00
2019-06-07T09:19:01.260Z,15618.00
2019-06-07T09:20:06.332Z,16620.00
2019-06-07T09:21:01.155Z,15275.00
2019-06-07T09:22:03.340Z,14724.00
2019-06-07T09:23:07.217Z,13921.00
2019-06-07T09:24:05.502Z,12897.00
2019-06-07T09:25:09.439Z,12045.00
2019-06-07T09:26:07.904Z,11834.00
2019-06-07T09:27:05.142Z,11893.00
2019-06-07T09:28:10.169Z,12162.00
2019-06-07T09:29:07.052Z,12440.00
2019-06-07T09:31:06.896Z,11673.00
2019-06-07T09:32:05.933Z,11799.00
2019-06-07T09:33:05.743Z,11916.00
2019-06-07T09:34:08.654Z,11860.00
2019-06-07T09:35:08.106Z,11809.00
2019-06-07T09:36:09.228Z,11629.00
2019-06-07T09:37:55.682Z,11592.00
2019-06-07T09:38:11.073Z,11496.00
2019-06-07T09:39:08.341Z,11356.00
2019-06-07T09:40:19.643Z,11366.00
2019-06-07T09:41:06.148Z,11213.00
2019-06-07T09:42:09.971Z,11393.00
2019-06-07T09:43:55.322Z,11468.00
2019-06-07T09:44:23.277Z,11698.00
2019-06-07T09:45:08.769Z,11872.00
2019-06-07T09:46:14.537Z,12639.00
2019-06-07T09:47:24.425Z,14166.00
2019-06-07T09:48:13.634Z,14710.00
2019-06-07T09:49:18.763Z,14094.00
2019-06-07T09:50:11.422Z,65536.00
2019-06-07T09:51:18.641Z,65536.00
2019-06-07T09:52:10.491Z,65536.00
2019-06-07T09:53:18.941Z,65536.00
2019-06-07T09:54:09.303Z,65536.00
2019-06-07T09:55:23.125Z,65536.00
2019-06-07T09:56:11.332Z,65536.00
2019-06-07T09:57:16.372Z,65536.00
2019-06-07T09:58:49.630Z,65536.00
2019-06-07T09:59:12.653Z,65536.00
2019-06-07T10:00:38.176Z,65536.00
2019-06-07T10:01:13.518Z,65536.00
2019-06-07T10:02:13.590Z,65536.00
2019-06-07T10:03:20.077Z,65536.00
2019-06-07T10:04:28.161Z,65536.00
2019-06-07T10:05:13.968Z,65536.00
2019-06-07T10:06:13.644Z,65536.00
2019-06-07T10:07:28.618Z,65536.00
2019-06-07T10:08:54.446Z,65536.00
2019-06-07T10:10:09.309Z,65536.00
2019-06-07T10:11:12.740Z,19256.00
2019-06-07T10:12:13.025Z,65536.00
2019-06-07T10:13:13.504Z,65536.00
2019-06-07T10:14:13.898Z,65536.00
2019-06-07T10:15:15.241Z,65536.00
2019-06-07T10:16:14.744Z,65536.00
2019-06-07T10:17:15.203Z,65536.00
2019-06-07T10:18:15.730Z,65536.00
2019-06-07T10:19:16.662Z,65536.00
2019-06-07T10:20:16.922Z,65536.00
2019-06-07T10:21:17.443Z,65536.00
2019-06-07T10:22:16.734Z,65536.00
2019-06-07T10:23:16.998Z,65536.00
2019-06-07T10:24:17.356Z,65536.00
2019-06-07T10:25:18.340Z,65536.00
2019-06-07T10:26:18.186Z,65536.00
2019-06-07T10:27:19.161Z,65536.00
2019-06-07T10:28:19.068Z,65536.00
2019-06-07T10:29:19.687Z,65536.00
2019-06-07T10:30:19.539Z,65536.00
2019-06-07T10:31:19.867Z,65536.00
2019-06-07T10:32:20.145Z,65536.00
2019-06-07T10:33:20.551Z,65536.00
2019-06-07T10:34:20.893Z,65536.00
2019-06-07T10:35:21.218Z,65536.00
2019-06-07T10:36:22.053Z,65536.00
2019-06-07T10:37:21.948Z,65536.00
2019-06-07T10:38:22.824Z,65536.00
2019-06-07T10:39:23.030Z,65536.00
2019-06-07T10:40:23.340Z,65536.00
2019-06-07T10:41:23.548Z,65536.00
2019-06-07T10:42:23.446Z,65536.00
2019-06-07T10:43:23.839Z,65536.00
2019-06-07T10:44:24.151Z,65536.00
2019-06-07T10:45:24.574Z,65536.00
2019-06-07T10:46:25.128Z,65536.00
2019-06-07T10:47:24.958Z,65536.00
2019-06-07T10:48:25.306Z,65536.00
2019-06-07T10:49:26.178Z,65536.00
2019-06-07T10:50:25.956Z,65536.00
2019-06-07T10:51:26.219Z,65536.00
2019-06-07T10:52:26.800Z,65536.00
2019-06-07T10:53:27.429Z,65536.00
2019-06-07T10:54:30.552Z,65536.00
2019-06-07T10:55:27.192Z,65536.00
2019-06-07T10:56:28.419Z,65536.00
2019-06-07T10:57:27.815Z,65536.00
2019-06-07T10:58:28.081Z,65536.00
2019-06-07T10:59:28.433Z,65536.00
2019-06-07T11:00:28.745Z,65536.00
2019-06-07T11:01:29.929Z,65536.00
2019-06-07T11:02:29.326Z,65536.00
2019-06-07T11:03:30.267Z,65536.00
2019-06-07T11:04:30.464Z,65536.00
2019-06-07T11:05:30.268Z,65536.00
2019-06-07T11:06:30.624Z,65536.00
2019-06-07T11:07:31.103Z,65536.00
2019-06-07T11:08:30.957Z,65536.00
2019-06-07T11:09:32.038Z,65536.00
2019-06-07T11:10:31.379Z,65536.00
2019-06-07T11:11:32.053Z,65536.00
2019-06-07T11:12:32.176Z,65536.00
2019-06-07T11:13:32.644Z,65536.00
2019-06-07T11:14:33.139Z,65536.00
2019-06-07T11:15:34.127Z,65536.00
2019-06-07T11:16:33.949Z,65536.00
2019-06-07T11:17:35.026Z,65536.00
2019-06-07T11:18:34.386Z,65536.00
2019-06-07T11:19:34.992Z,65536.00
2019-06-07T11:20:34.793Z,65536.00
2019-06-07T11:21:35.123Z,65536.00
2019-06-07T11:22:36.108Z,65536.00
2019-06-07T11:23:35.901Z,65536.00
2019-06-07T11:24:37.153Z,65536.00
2019-06-07T11:25:37.334Z,65536.00
2019-06-07T11:26:37.599Z,65536.00
2019-06-07T11:27:36.905Z,65536.00
2019-06-07T11:28:37.567Z,65536.00
2019-06-07T11:29:37.680Z,65536.00
2019-06-07T11:30:38.291Z,65536.00
2019-06-07T11:31:38.291Z,65536.00
2019-06-07T11:32:38.505Z,65536.00
2019-06-07T11:33:38.631Z,65536.00
2019-06-07T11:34:38.625Z,65536.00
2019-06-07T11:35:38.522Z,65536.00
2019-06-07T11:36:38.525Z,65536.00
2019-06-07T11:37:39.767Z,65536.00
2019-06-07T11:38:39.101Z,65536.00
2019-06-07T11:39:39.470Z,65536.00
2019-06-07T11:40:40.607Z,65536.00
2019-06-07T11:41:40.056Z,65536.00
2019-06-07T11:42:40.367Z,65536.00
2019-06-07T11:43:41.250Z,65536.00
2019-06-07T11:44:55.736Z,65536.00
2019-06-07T11:45:41.178Z,65536.00
2019-06-07T11:46:41.877Z,65536.00
2019-06-07T11:47:42.056Z,65536.00
2019-06-07T11:48:42.230Z,65536.00
2019-06-07T11:49:42.110Z,65536.00
2019-06-07T11:50:43.143Z,65536.00
2019-06-07T11:51:42.955Z,65536.00
2019-06-07T11:52:46.303Z,65536.00
2019-06-07T11:53:44.714Z,65536.00
2019-06-07T11:54:47.821Z,65536.00
2019-06-07T11:55:44.689Z,65536.00
2019-06-07T11:56:44.911Z,65536.00
2019-06-07T11:57:45.328Z,65536.00
2019-06-07T11:58:45.536Z,65536.00
2019-06-07T11:59:45.652Z,65536.00
2019-06-07T12:00:45.665Z,65536.00
2019-06-07T12:01:46.489Z,65536.00
2019-06-07T12:02:46.587Z,17953.00
2019-06-07T12:03:47.108Z,65536.00
2019-06-07T12:04:46.915Z,65536.00
2019-06-07T12:05:47.428Z,65536.00
2019-06-07T12:06:47.545Z,65536.00
2019-06-07T12:07:47.652Z,65536.00
2019-06-07T12:08:47.960Z,65536.00
2019-06-07T12:09:56.378Z,65536.00
2019-06-07T12:10:48.046Z,65536.00
2019-06-07T12:11:48.488Z,65536.00
2019-06-07T12:12:48.906Z,65536.00
2019-06-07T12:13:49.696Z,65536.00
2019-06-07T12:14:49.645Z,65536.00
2019-06-07T12:15:50.053Z,65536.00
2019-06-07T12:16:50.371Z,65536.00
2019-06-07T12:17:50.267Z,65536.00
2019-06-07T12:18:51.201Z,65536.00
2019-06-07T12:19:51.706Z,65536.00
2019-06-07T12:21:51.510Z,65536.00
2019-06-07T12:22:51.985Z,65536.00
2019-06-07T12:23:52.354Z,65536.00
2019-06-07T12:24:52.486Z,65536.00
2019-06-07T12:25:52.775Z,65536.00
2019-06-07T12:26:52.985Z,65536.00
2019-06-07T12:27:53.721Z,65536.00
2019-06-07T12:28:53.198Z,65536.00
2019-06-07T12:29:54.134Z,65536.00
2019-06-07T12:30:55.305Z,65536.00
2019-06-07T12:31:54.455Z,65536.00
2019-06-07T12:32:54.776Z,65536.00
2019-06-07T12:33:55.288Z,65536.00
2019-06-07T12:34:54.707Z,65536.00
2019-06-07T12:36:55.553Z,65536.00
2019-06-07T12:37:55.850Z,65536.00
2019-06-07T12:38:56.456Z,65536.00
2019-06-07T12:39:56.461Z,65536.00
2019-06-07T12:40:57.884Z,65536.00
2019-06-07T12:41:55.963Z,65536.00
2019-06-07T12:42:56.462Z,65536.00
2019-06-07T12:43:59.193Z,65536.00
2019-06-07T12:44:56.926Z,65536.00
2019-06-07T12:45:56.752Z,65536.00
2019-06-07T12:46:57.716Z,65536.00
2019-06-07T12:47:57.632Z,65536.00
2019-06-07T12:48:57.914Z,65536.00
2019-06-07T12:49:58.719Z,65536.00
2019-06-07T12:50:58.131Z,65536.00
2019-06-07T12:51:59.200Z,65536.00
2019-06-07T12:52:58.892Z,65536.00
2019-06-07T12:53:59.207Z,65536.00
2019-06-07T12:54:59.088Z,65536.00
2019-06-07T12:56:00.409Z,65536.00
2019-06-07T12:57:00.253Z,65536.00
2019-06-07T12:58:00.869Z,65536.00
2019-06-07T12:59:00.778Z,65536.00
2019-06-07T13:00:01.607Z,65536.00
2019-06-07T13:01:01.618Z,65536.00
2019-06-07T13:02:02.587Z,65536.00
2019-06-07T13:03:02.233Z,65536.00
2019-06-07T13:04:01.833Z,65536.00
2019-06-07T13:05:04.629Z,65536.00
2019-06-07T13:06:01.877Z,65536.00
2019-06-07T13:07:01.843Z,65536.00
2019-06-07T13:08:02.338Z,65536.00
2019-06-07T13:09:02.525Z,65536.00
2019-06-07T13:10:02.680Z,65536.00
2019-06-07T13:11:14.835Z,65536.00
2019-06-07T13:12:02.864Z,65536.00
2019-06-07T13:13:03.032Z,65536.00
2019-06-07T13:14:03.241Z,65536.00
2019-06-07T13:15:03.317Z,65536.00
2019-06-07T13:16:03.692Z,65536.00
2019-06-07T13:17:03.514Z,65536.00
2019-06-07T13:18:03.577Z,65536.00
2019-06-07T13:19:04.208Z,65536.00
2019-06-07T13:20:04.189Z,65536.00
2019-06-07T13:21:04.245Z,65536.00
2019-06-07T13:22:04.928Z,65536.00
2019-06-07T13:23:04.714Z,65536.00
2019-06-07T13:24:05.162Z,65536.00
2019-06-07T13:25:05.662Z,65536.00
2019-06-07T13:26:05.669Z,65536.00
2019-06-07T13:27:05.901Z,65536.00
2019-06-07T13:28:08.870Z,65536.00
2019-06-07T13:29:06.812Z,65536.00
2019-06-07T13:30:10.045Z,65536.00
2019-06-07T13:31:07.155Z,65536.00
2019-06-07T13:32:07.652Z,65536.00
2019-06-07T13:33:08.374Z,65536.00
2019-06-07T13:34:08.589Z,65536.00
2019-06-07T13:35:09.047Z,65536.00
2019-06-07T13:36:09.138Z,65536.00
2019-06-07T13:37:09.740Z,65536.00
2019-06-07T13:38:09.830Z,65536.00
2019-06-07T13:39:10.225Z,65536.00
2019-06-07T13:40:10.259Z,65536.00
2019-06-07T13:41:10.678Z,65536.00
2019-06-07T13:42:10.937Z,65536.00
2019-06-07T13:43:11.617Z,65536.00
2019-06-07T13:44:11.198Z,65536.00
2019-06-07T13:45:11.321Z,65536.00
2019-06-07T13:46:12.955Z,65536.00
2019-06-07T13:47:11.742Z,65536.00
2019-06-07T13:48:12.279Z,65536.00
2019-06-07T13:49:12.370Z,65536.00
2019-06-07T13:50:12.482Z,65536.00
2019-06-07T13:51:15.517Z,65536.00
2019-06-07T13:52:12.806Z,65536.00
2019-06-07T13:53:13.006Z,65536.00
2019-06-07T13:54:13.219Z,65536.00
2019-06-07T13:55:13.741Z,65536.00
2019-06-07T13:56:14.258Z,65536.00
2019-06-07T13:57:13.450Z,65536.00
2019-06-07T13:58:13.554Z,65536.00
2019-06-07T13:59:13.551Z,65536.00
2019-06-07T14:00:14.390Z,65536.00
2019-06-07T14:01:14.585Z,65536.00
2019-06-07T14:02:14.704Z,65536.00
2019-06-07T14:03:14.817Z,65536.00
2019-06-07T14:04:15.335Z,65536.00
2019-06-07T14:05:15.857Z,65536.00
2019-06-07T14:06:15.676Z,65536.00
2019-06-07T14:07:16.180Z,65536.00
2019-06-07T14:10:16.973Z,65536.00
2019-06-07T14:11:17.225Z,65536.00
2019-06-07T14:12:17.436Z,65536.00
2019-06-07T14:13:18.060Z,65536.00
2019-06-07T14:14:17.760Z,65536.00
2019-06-07T14:15:17.629Z,65536.00
2019-06-07T14:16:17.913Z,65536.00
2019-06-07T14:17:18.484Z,65536.00
2019-06-07T14:18:20.230Z,65536.00
2019-06-07T14:19:20.387Z,65536.00
2019-06-07T14:20:25.529Z,65536.00
2019-06-07T14:21:20.366Z,65536.00
2019-06-07T14:22:20.579Z,65536.00
2019-06-07T14:23:41.335Z,65536.00
2019-06-07T14:24:21.092Z,65536.00
2019-06-07T14:25:21.016Z,65536.00
2019-06-07T14:26:21.384Z,65536.00
2019-06-07T14:27:21.448Z,65536.00
2019-06-07T14:28:24.676Z,65536.00
2019-06-07T14:29:21.948Z,65536.00
2019-06-07T14:30:23.798Z,65536.00
2019-06-07T14:31:24.544Z,65536.00
2019-06-07T14:32:22.896Z,65536.00
2019-06-07T14:33:26.116Z,65536.00
2019-06-07T14:34:24.249Z,65536.00
2019-06-07T14:35:24.482Z,65536.00
2019-06-07T14:36:24.765Z,65536.00
2019-06-07T14:37:24.879Z,65536.00
2019-06-07T14:38:24.872Z,65536.00
2019-06-07T14:39:24.943Z,65536.00
2019-06-07T14:40:25.406Z,65536.00
2019-06-07T14:41:25.227Z,65536.00
2019-06-07T14:42:25.343Z,65536.00
2019-06-07T14:43:25.731Z,65536.00
2019-06-07T14:44:26.296Z,65536.00
2019-06-07T14:45:27.588Z,65536.00
2019-06-07T14:46:28.096Z,65536.00
2019-06-07T14:47:27.965Z,65536.00
2019-06-07T14:48:28.000Z,65536.00
2019-06-07T14:49:28.206Z,65536.00
2019-06-07T14:50:28.178Z,65536.00
2019-06-07T14:51:28.452Z,65536.00
2019-06-07T14:52:28.417Z,65536.00
2019-06-07T14:53:28.795Z,65536.00
2019-06-07T14:54:32.113Z,65536.00
2019-06-07T14:55:29.011Z,65536.00
2019-06-07T14:56:29.579Z,65536.00
2019-06-07T14:57:29.122Z,65536.00
2019-06-07T14:58:29.333Z,65536.00
2019-06-07T14:59:30.337Z,65536.00
2019-06-07T15:00:30.468Z,65536.00
2019-06-07T15:01:30.701Z,65536.00
2019-06-07T15:02:33.797Z,65536.00
2019-06-07T15:03:30.718Z,65536.00
2019-06-07T15:04:30.885Z,16759.00
2019-06-07T15:05:32.871Z,18238.00
2019-06-07T15:06:32.676Z,17016.00
2019-06-07T15:07:31.027Z,15682.00
2019-06-07T15:08:32.964Z,15270.00
2019-06-07T15:09:35.247Z,16252.00
2019-06-07T15:10:32.351Z,18049.00
2019-06-07T15:11:33.144Z,65536.00
2019-06-07T15:12:33.214Z,65536.00
2019-06-07T15:13:33.607Z,16284.00
2019-06-07T15:14:33.421Z,15985.00
2019-06-07T15:15:34.603Z,16813.00
2019-06-07T15:16:33.877Z,16836.00
2019-06-07T15:17:35.329Z,65536.00
2019-06-07T15:18:34.037Z,65536.00
2019-06-07T15:19:36.296Z,65536.00
2019-06-07T15:20:34.266Z,65536.00
2019-06-07T15:21:35.114Z,65536.00
2019-06-07T15:22:36.145Z,65536.00
2019-06-07T15:23:35.271Z,15828.00
2019-06-07T15:24:37.783Z,12791.00
2019-06-07T15:25:39.698Z,15034.00
2019-06-07T15:26:36.430Z,65536.00
2019-06-07T15:27:37.474Z,65536.00
2019-06-07T15:28:38.066Z,65536.00
2019-06-07T15:29:38.117Z,16233.00
2019-06-07T15:30:36.248Z,12961.00
2019-06-07T15:31:38.558Z,13831.00
2019-06-07T15:32:39.388Z,65536.00
2019-06-07T15:33:38.342Z,14595.00
2019-06-07T15:34:38.426Z,10590.00
2019-06-07T15:35:39.105Z,8942.00
2019-06-07T15:36:38.757Z,8408.00
2019-06-07T15:37:39.347Z,7658.00
2019-06-07T15:38:39.625Z,7376.00
2019-06-07T15:39:39.299Z,7045.00
2019-06-07T15:40:39.697Z,6685.00
2019-06-07T15:41:39.704Z,6489.00
2019-06-07T15:42:51.260Z,6163.00
2019-06-07T15:43:39.474Z,5947.00
2019-06-07T15:44:39.604Z,5717.00
2019-06-07T15:45:39.778Z,5591.00
2019-06-07T15:46:40.435Z,5439.00
2019-06-07T15:47:40.769Z,5375.00
2019-06-07T15:48:40.681Z,5395.00
2019-06-07T15:49:41.323Z,5470.00
2019-06-07T15:50:41.013Z,5697.00
2019-06-07T15:51:41.254Z,6163.00
2019-06-07T15:52:43.322Z,6405.00
2019-06-07T15:53:44.637Z,6548.00
2019-06-07T15:54:41.565Z,6633.00
2019-06-07T15:55:45.414Z,6641.00
2019-06-07T15:56:41.969Z,6783.00
2019-06-07T15:57:42.575Z,7079.00
2019-06-07T15:58:42.713Z,7382.00
2019-06-07T15:59:43.030Z,7644.00
2019-06-07T16:00:45.947Z,8118.00
2019-06-07T16:01:43.746Z,8204.00
2019-06-07T16:02:44.374Z,7929.00
2019-06-07T16:03:44.482Z,8060.00
2019-06-07T16:04:44.186Z,8121.00
2019-06-07T16:05:44.034Z,8821.00
2019-06-07T16:06:44.700Z,9127.00
2019-06-07T16:07:45.121Z,9175.00
2019-06-07T16:08:44.981Z,9381.00
2019-06-07T16:09:45.455Z,9537.00
2019-06-07T16:10:45.961Z,9305.00
2019-06-07T16:11:46.346Z,9460.00
2019-06-07T16:12:59.622Z,10701.00
2019-06-07T16:13:47.097Z,65536.00
2019-06-07T16:14:46.980Z,65536.00
2019-06-07T16:15:47.397Z,65536.00
2019-06-07T16:16:47.944Z,65536.00
2019-06-07T16:17:47.869Z,65536.00
2019-06-07T16:18:48.201Z,65536.00
2019-06-07T16:19:48.898Z,65536.00
2019-06-07T16:20:48.903Z,65536.00
2019-06-07T16:21:49.310Z,65536.00
2019-06-07T16:22:49.168Z,65536.00
2019-06-07T16:23:49.628Z,65536.00
2019-06-07T16:24:50.452Z,65536.00
2019-06-07T16:25:50.675Z,65536.00
2019-06-07T16:26:50.874Z,65536.00
2019-06-07T16:27:51.319Z,65536.00
2019-06-07T16:28:51.807Z,65536.00
2019-06-07T16:29:52.025Z,13922.00
2019-06-07T16:30:51.918Z,14340.00
2019-06-07T16:31:52.443Z,15637.00
2019-06-07T16:32:52.446Z,65536.00
2019-06-07T16:33:53.380Z,65536.00
2019-06-07T16:34:53.603Z,65536.00
2019-06-07T16:35:53.708Z,65536.00
2019-06-07T16:36:54.110Z,65536.00
2019-06-07T16:37:54.005Z,13108.00
2019-06-07T16:38:54.951Z,65536.00
2019-06-07T16:40:55.064Z,65536.00
2019-06-07T16:41:54.980Z,65536.00
2019-06-07T16:42:56.004Z,65536.00
2019-06-07T16:43:55.411Z,65536.00
2019-06-07T16:44:56.024Z,65536.00
2019-06-07T16:45:56.345Z,65536.00
2019-06-07T16:46:56.432Z,65536.00
2019-06-07T16:47:56.643Z,65536.00
2019-06-07T16:48:56.691Z,65536.00
2019-06-07T16:49:56.921Z,65536.00
2019-06-07T16:50:57.178Z,14703.00
2019-06-07T16:51:57.593Z,13802.00
2019-06-07T16:52:57.806Z,14373.00
2019-06-07T16:53:58.016Z,11932.00
2019-06-07T16:54:58.437Z,65536.00
2019-06-07T16:55:58.857Z,11595.00
2019-06-07T16:56:59.083Z,11630.00
2019-06-07T16:57:58.916Z,12136.00
2019-06-07T16:58:59.793Z,65536.00
2019-06-07T17:00:00.415Z,8999.00
2019-06-07T17:01:00.218Z,7285.00
2019-06-07T17:02:00.318Z,8542.00
2019-06-07T17:03:00.734Z,8990.00
2019-06-07T17:04:01.124Z,8624.00
2019-06-07T17:05:01.556Z,8314.00
2019-06-07T17:06:01.888Z,7126.00
2019-06-07T17:07:01.692Z,5222.00
2019-06-07T17:08:02.284Z,4125.00
2019-06-07T17:09:02.413Z,6529.00
2019-06-07T17:10:02.650Z,4089.00
2019-06-07T17:11:03.257Z,4306.00
2019-06-07T17:12:06.316Z,4250.00
2019-06-07T17:13:03.467Z,4265.00
2019-06-07T17:14:04.074Z,5226.00
2019-06-07T17:15:03.618Z,6862.00
2019-06-07T17:16:04.217Z,65536.00